createdAt,value
2019-04-16T00:02:09.409Z,54.90
2019-04-16T00:04:53.336Z,55.20
2019-04-16T00:07:43.631Z,55.60
2019-04-16T00:10:35.305Z,55.90
2019-04-16T00:13:26.794Z,55.90
2019-04-16T00:15:59.236Z,55.90
2019-04-16T00:18:29.275Z,56.50
2019-04-16T00:21:30.107Z,56.80
2019-04-16T00:24:19.460Z,56.60
2019-04-16T00:26:51.634Z,56.80
2019-04-16T00:29:22.799Z,57.10
2019-04-16T00:31:55.963Z,57.30
2019-04-16T00:34:27.043Z,57.10
2019-04-16T00:36:57.043Z,57.50
2019-04-16T00:39:27.051Z,57.50
2019-04-16T00:41:57.407Z,57.70
2019-04-16T00:44:27.712Z,57.70
2019-04-16T00:46:57.791Z,57.30
2019-04-16T00:49:27.819Z,57.20
2019-04-16T00:51:57.874Z,58.10
2019-04-16T00:54:27.894Z,58.30
2019-04-16T00:56:58.078Z,58.50
2019-04-16T00:59:28.084Z,58.90
2019-04-16T01:01:58.218Z,58.90
2019-04-16T01:04:28.366Z,59.10
2019-04-16T01:06:58.386Z,59.30
2019-04-16T01:09:29.448Z,60.00
2019-04-16T01:11:59.708Z,60.60
2019-04-16T01:14:29.805Z,60.70
2019-04-16T01:17:03.895Z,61.10
2019-04-16T01:19:31.506Z,62.50
2019-04-16T01:22:01.499Z,62.30
2019-04-16T01:24:31.603Z,62.70
2019-04-16T01:27:01.931Z,63.20
2019-04-16T01:29:33.998Z,63.90
2019-04-16T01:32:21.549Z,64.00
2019-04-16T01:35:19.813Z,64.00
2019-04-16T01:38:08.943Z,65.20
2019-04-16T01:41:01.067Z,64.50
2019-04-16T01:43:31.059Z,63.70
2019-04-16T01:46:02.356Z,64.60
2019-04-16T01:48:32.931Z,64.50
2019-04-16T01:51:02.947Z,65.10
2019-04-16T01:53:32.946Z,64.50
2019-04-16T01:56:02.956Z,64.60
2019-04-16T01:58:33.842Z,64.90
2019-04-16T02:01:04.870Z,65.00
2019-04-16T02:03:35.003Z,65.70
2019-04-16T02:06:05.172Z,65.30
2019-04-16T02:08:35.383Z,63.90
2019-04-16T02:11:09.605Z,63.40
2019-04-16T02:13:37.100Z,63.10
2019-04-16T02:16:07.123Z,61.90
2019-04-16T02:18:37.115Z,61.20
2019-04-16T02:21:09.623Z,60.90
2019-04-16T02:23:38.854Z,61.30
2019-04-16T02:26:08.860Z,61.80
2019-04-16T02:28:38.843Z,61.70
2019-04-16T02:31:13.736Z,60.90
2019-04-16T02:33:40.527Z,60.50
2019-04-16T02:36:10.589Z,59.70
2019-04-16T02:38:46.272Z,59.30
2019-04-16T02:41:12.288Z,58.70
2019-04-16T02:43:42.296Z,58.40
2019-04-16T02:46:12.380Z,58.10
2019-04-16T02:48:42.527Z,57.80
2019-04-16T02:51:25.083Z,57.70
2019-04-16T02:54:01.421Z,57.50
2019-04-16T02:56:52.101Z,57.30
2019-04-16T02:59:25.615Z,57.30
2019-04-16T03:02:26.475Z,57.30
2019-04-16T03:05:05.168Z,57.30
2019-04-16T03:07:35.206Z,56.90
2019-04-16T03:10:05.208Z,57.00
2019-04-16T03:12:35.308Z,56.90
2019-04-16T03:15:05.586Z,57.10
2019-04-16T03:17:42.891Z,57.10
2019-04-16T03:20:14.402Z,57.30
2019-04-16T03:22:44.486Z,57.30
2019-04-16T03:25:14.792Z,57.30
2019-04-16T03:27:44.954Z,57.30
2019-04-16T03:30:14.948Z,57.60
2019-04-16T03:32:51.515Z,57.60
2019-04-16T03:35:25.462Z,57.60
2019-04-16T03:37:53.311Z,57.20
2019-04-16T03:40:25.650Z,57.10
2019-04-16T03:42:59.043Z,57.10
2019-04-16T03:45:26.704Z,57.10
2019-04-16T03:47:56.722Z,57.00
2019-04-16T03:50:31.072Z,56.70
2019-04-16T03:52:58.498Z,56.90
2019-04-16T03:55:28.521Z,57.00
2019-04-16T03:57:58.590Z,56.80
2019-04-16T04:00:28.580Z,56.70
2019-04-16T04:02:58.594Z,56.80
2019-04-16T04:05:28.581Z,56.90
2019-04-16T04:07:58.651Z,57.70
2019-04-16T04:10:31.313Z,56.70
2019-04-16T04:13:00.365Z,56.50
2019-04-16T04:15:30.361Z,56.20
2019-04-16T04:18:00.376Z,56.20
2019-04-16T04:20:30.402Z,56.10
2019-04-16T04:23:00.415Z,56.10
2019-04-16T04:25:30.559Z,56.20
2019-04-16T04:28:01.746Z,56.00
2019-04-16T04:30:31.736Z,56.00
2019-04-16T04:33:04.747Z,56.00
2019-04-16T04:35:33.555Z,56.00
2019-04-16T04:38:04.196Z,56.20
2019-04-16T04:40:44.252Z,57.00
2019-04-16T04:43:08.156Z,56.70
2019-04-16T04:45:40.864Z,56.50
2019-04-16T04:48:11.463Z,56.50
2019-04-16T04:50:41.619Z,57.00
2019-04-16T04:53:11.632Z,59.10
2019-04-16T04:55:41.727Z,61.70
2019-04-16T04:58:11.743Z,62.30
2019-04-16T05:00:41.820Z,63.30
2019-04-16T05:03:15.613Z,64.00
2019-04-16T05:05:49.991Z,64.50
2019-04-16T05:08:20.007Z,64.70
2019-04-16T05:10:58.950Z,64.80
2019-04-16T05:13:25.115Z,63.90
2019-04-16T05:15:53.424Z,63.30
2019-04-16T05:18:23.440Z,63.20
2019-04-16T05:20:53.423Z,63.90
2019-04-16T05:23:25.677Z,63.80
2019-04-16T05:25:55.151Z,63.90
2019-04-16T05:28:25.173Z,61.10
2019-04-16T05:30:55.242Z,59.40
2019-04-16T05:33:26.392Z,56.30
2019-04-16T05:35:59.327Z,52.70
2019-04-16T05:38:28.223Z,49.50
2019-04-16T05:41:12.193Z,47.60
2019-04-16T05:43:30.873Z,46.00
2019-04-16T05:46:01.068Z,43.80
2019-04-16T05:48:31.080Z,44.70
2019-04-16T05:51:01.055Z,42.70
2019-04-16T05:53:31.093Z,42.30
2019-04-16T05:56:24.039Z,43.10
2019-04-16T05:58:54.407Z,41.80
2019-04-16T06:01:30.720Z,40.30
2019-04-16T06:04:00.806Z,40.20
2019-04-16T06:06:31.865Z,39.30
2019-04-16T06:09:02.531Z,37.00
2019-04-16T06:11:36.531Z,36.10
2019-04-16T06:14:18.683Z,36.00
2019-04-16T06:17:06.016Z,35.20
2019-04-16T06:19:46.837Z,35.20
2019-04-16T06:22:38.078Z,34.40
2019-04-16T06:25:25.964Z,34.50
2019-04-16T06:28:16.579Z,33.90
2019-04-16T06:31:14.540Z,34.00
2019-04-16T06:33:54.187Z,33.90
2019-04-16T06:36:46.439Z,33.80
2019-04-16T06:39:44.735Z,34.40
2019-04-16T06:42:22.485Z,34.90
2019-04-16T06:44:53.974Z,34.40
2019-04-16T06:47:32.346Z,33.50
2019-04-16T06:50:31.943Z,33.10
2019-04-16T06:53:25.223Z,31.90
2019-04-16T06:56:29.505Z,32.80
2019-04-16T06:59:11.864Z,32.90
2019-04-16T07:02:00.816Z,31.30
2019-04-16T07:04:48.441Z,31.40
2019-04-16T07:07:39.527Z,33.00
2019-04-16T07:10:13.475Z,33.60
2019-04-16T07:12:43.529Z,34.30
2019-04-16T07:15:13.732Z,33.10
2019-04-16T07:17:44.085Z,31.80
2019-04-16T07:20:14.316Z,31.60
2019-04-16T07:22:44.634Z,31.00
2019-04-16T07:25:15.240Z,31.60
2019-04-16T07:27:58.632Z,31.40
2019-04-16T07:30:45.875Z,30.90
2019-04-16T07:33:46.619Z,30.50
2019-04-16T07:36:27.152Z,32.30
2019-04-16T07:39:29.230Z,33.60
2019-04-16T07:43:47.121Z,34.30
2019-04-16T07:44:55.598Z,32.70
2019-04-16T07:48:01.093Z,32.30
2019-04-16T07:51:01.597Z,32.50
2019-04-16T07:53:52.427Z,31.90
2019-04-16T07:56:24.947Z,31.50
2019-04-16T07:59:00.253Z,31.40
2019-04-16T08:01:26.784Z,31.90
2019-04-16T08:04:01.010Z,31.60
2019-04-16T08:06:29.374Z,30.40
2019-04-16T08:08:59.534Z,30.00
2019-04-16T08:11:29.552Z,30.00
2019-04-16T08:13:59.592Z,30.70
2019-04-16T08:16:29.668Z,32.10
2019-04-16T08:19:01.113Z,32.10
2019-04-16T08:21:31.328Z,31.80
2019-04-16T08:24:14.422Z,32.20
2019-04-16T08:26:45.262Z,31.50
2019-04-16T08:29:15.546Z,30.50
2019-04-16T08:31:47.311Z,29.30
2019-04-16T08:34:17.526Z,29.80
2019-04-16T08:36:47.521Z,30.20
2019-04-16T08:39:17.619Z,30.60
2019-04-16T08:41:52.108Z,29.50
2019-04-16T08:44:19.632Z,29.30
2019-04-16T08:46:49.630Z,30.00
2019-04-16T08:49:22.248Z,29.20
2019-04-16T08:51:51.340Z,29.10
2019-04-16T08:54:21.434Z,30.20
2019-04-16T08:56:51.519Z,30.60
2019-04-16T08:59:21.543Z,30.00
2019-04-16T09:01:54.521Z,29.80
2019-04-16T09:04:23.323Z,29.50
2019-04-16T09:06:53.320Z,29.20
2019-04-16T09:09:42.280Z,28.70
2019-04-16T09:12:12.304Z,28.20
2019-04-16T09:14:47.803Z,29.30
2019-04-16T09:17:21.335Z,29.00
2019-04-16T09:20:11.851Z,28.60
2019-04-16T09:22:48.785Z,28.00
2019-04-16T09:25:29.420Z,29.40
2019-04-16T09:28:24.460Z,29.50
2019-04-16T09:31:02.316Z,29.70
2019-04-16T09:33:39.619Z,31.00
2019-04-16T09:36:31.641Z,30.20
2019-04-16T09:39:07.198Z,29.70
2019-04-16T09:41:40.619Z,31.00
2019-04-16T09:44:10.619Z,31.00
2019-04-16T09:46:51.241Z,31.10
2019-04-16T09:49:12.533Z,30.70
2019-04-16T09:51:43.089Z,31.70
2019-04-16T09:54:13.987Z,31.60
2019-04-16T09:56:44.295Z,30.70
2019-04-16T09:59:36.041Z,30.60
2019-04-16T10:02:30.879Z,29.20
2019-04-16T10:05:00.878Z,29.30
2019-04-16T10:07:31.293Z,29.40
2019-04-16T10:10:01.477Z,30.00
2019-04-16T10:12:31.749Z,30.00
2019-04-16T10:15:01.825Z,30.70
2019-04-16T10:17:32.505Z,32.70
2019-04-16T10:20:02.567Z,32.10
2019-04-16T10:22:32.896Z,32.20
2019-04-16T10:25:21.308Z,32.10
2019-04-16T10:27:53.631Z,33.30
2019-04-16T10:30:31.256Z,32.20
2019-04-16T10:33:01.443Z,31.50
2019-04-16T10:35:31.564Z,30.30
2019-04-16T10:38:08.069Z,31.40
2019-04-16T10:40:41.094Z,30.60
2019-04-16T10:43:44.871Z,30.30
2019-04-16T10:46:30.263Z,30.50
2019-04-16T10:49:24.176Z,29.90
2019-04-16T10:52:03.440Z,29.80
2019-04-16T10:54:40.944Z,31.00
2019-04-16T10:57:38.833Z,32.40
2019-04-16T11:00:24.953Z,33.70
2019-04-16T11:03:04.705Z,33.20
2019-04-16T11:05:44.075Z,33.60
2019-04-16T11:08:14.662Z,33.10
2019-04-16T11:10:44.791Z,33.40
2019-04-16T11:13:27.980Z,33.60
2019-04-16T11:16:01.074Z,34.60
2019-04-16T11:18:31.225Z,35.20
2019-04-16T11:21:01.517Z,34.60
2019-04-16T11:23:31.559Z,35.30
2019-04-16T11:26:01.616Z,35.30
2019-04-16T11:28:31.724Z,36.00
2019-04-16T11:31:03.838Z,37.30
2019-04-16T11:33:34.006Z,37.10
2019-04-16T11:36:17.383Z,36.70
2019-04-16T11:38:35.735Z,37.30
2019-04-16T11:41:07.631Z,36.60
2019-04-16T11:43:37.635Z,37.00
2019-04-16T11:46:07.748Z,37.00
2019-04-16T11:48:38.411Z,37.20
2019-04-16T11:51:08.558Z,38.10
2019-04-16T11:53:38.629Z,37.00
2019-04-16T11:56:08.673Z,37.90
2019-04-16T11:58:45.946Z,37.70
2019-04-16T12:01:48.034Z,38.90
2019-04-16T12:04:30.740Z,39.60
2019-04-16T12:07:18.410Z,39.00
2019-04-16T12:10:07.448Z,38.50
2019-04-16T12:13:08.554Z,37.70
2019-04-16T12:15:57.800Z,38.00
2019-04-16T12:18:37.090Z,40.40
2019-04-16T12:21:11.188Z,41.20
2019-04-16T12:24:09.046Z,39.30
2019-04-16T12:26:57.892Z,39.10
2019-04-16T12:29:34.572Z,38.50
2019-04-16T12:32:26.694Z,38.30
2019-04-16T12:35:13.649Z,38.20
2019-04-16T12:38:01.664Z,37.80
2019-04-16T12:40:54.963Z,39.50
2019-04-16T12:43:33.643Z,39.70
2019-04-16T12:46:31.603Z,39.10
2019-04-16T12:49:35.813Z,38.50
2019-04-16T12:52:22.660Z,39.50
2019-04-16T12:55:11.731Z,40.70
2019-04-16T12:58:06.746Z,39.10
2019-04-16T13:00:55.725Z,38.50
2019-04-16T13:03:36.322Z,38.00
2019-04-16T13:06:30.940Z,38.40
2019-04-16T13:09:18.847Z,38.50
2019-04-16T13:12:09.520Z,38.30
2019-04-16T13:15:00.982Z,39.40
2019-04-16T13:17:53.128Z,38.10
2019-04-16T13:20:57.073Z,38.60
2019-04-16T13:23:44.719Z,38.10
2019-04-16T13:26:33.729Z,38.00
2019-04-16T13:29:07.503Z,38.00
2019-04-16T13:31:38.996Z,38.70
2019-04-16T13:34:09.651Z,37.80
2019-04-16T13:36:39.687Z,38.30
2019-04-16T13:39:33.259Z,37.40
2019-04-16T13:42:03.452Z,37.60
2019-04-16T13:44:37.658Z,37.70
2019-04-16T13:47:09.006Z,36.60
2019-04-16T13:49:44.794Z,36.80
2019-04-16T13:52:16.974Z,38.80
2019-04-16T13:55:10.476Z,38.90
2019-04-16T13:57:40.688Z,40.10
2019-04-16T14:00:36.388Z,39.80
2019-04-16T14:03:09.819Z,38.30
2019-04-16T14:05:42.664Z,39.40
2019-04-16T14:08:11.629Z,38.70
2019-04-16T14:10:43.337Z,38.30
2019-04-16T14:13:14.327Z,37.70
2019-04-16T14:15:44.958Z,37.70
2019-04-16T14:18:15.095Z,38.20
2019-04-16T14:20:45.088Z,39.50
2019-04-16T14:23:15.295Z,39.90
2019-04-16T14:25:46.142Z,38.90
2019-04-16T14:28:17.991Z,37.90
2019-04-16T14:30:49.992Z,38.70
2019-04-16T14:33:28.548Z,38.80
2019-04-16T14:35:58.662Z,39.70
2019-04-16T14:38:37.588Z,39.20
2019-04-16T14:41:08.191Z,39.60
2019-04-16T14:43:41.288Z,38.80
2019-04-16T14:46:11.292Z,39.50
2019-04-16T14:48:45.507Z,38.40
2019-04-16T14:51:13.275Z,38.50
2019-04-16T14:53:59.923Z,39.50
2019-04-16T14:56:36.355Z,40.70
2019-04-16T14:59:29.889Z,39.40
2019-04-16T15:02:15.398Z,39.80
2019-04-16T15:05:03.381Z,41.40
2019-04-16T15:07:38.269Z,40.50
2019-04-16T15:10:26.139Z,40.00
2019-04-16T15:13:14.084Z,40.50
2019-04-16T15:15:48.656Z,40.80
2019-04-16T15:18:40.830Z,41.60
2019-04-16T15:21:29.247Z,40.60
2019-04-16T15:24:16.718Z,40.80
2019-04-16T15:27:18.020Z,41.50
2019-04-16T15:30:10.123Z,42.50
2019-04-16T15:32:58.244Z,42.00
2019-04-16T15:35:38.162Z,40.50
2019-04-16T15:38:14.605Z,40.00
2019-04-16T15:40:47.226Z,41.60
2019-04-16T15:43:35.546Z,42.50
2019-04-16T15:46:26.448Z,41.50
2019-04-16T15:49:23.280Z,41.90
2019-04-16T15:52:12.805Z,42.00
2019-04-16T15:54:58.747Z,42.20
2019-04-16T15:57:48.021Z,41.80
2019-04-16T16:00:43.985Z,41.60
2019-04-16T16:03:39.050Z,42.40
2019-04-16T16:06:12.750Z,43.00
2019-04-16T16:08:53.919Z,43.60
2019-04-16T16:11:44.534Z,43.10
2019-04-16T16:14:15.106Z,44.20
2019-04-16T16:16:50.300Z,44.40
2019-04-16T16:19:17.085Z,44.80
2019-04-16T16:21:47.747Z,44.80
2019-04-16T16:24:17.779Z,43.90
2019-04-16T16:26:47.919Z,44.70
2019-04-16T16:29:17.922Z,44.10
2019-04-16T16:31:48.149Z,44.30
2019-04-16T16:34:18.227Z,44.10
2019-04-16T16:36:48.288Z,44.10
2019-04-16T16:39:18.427Z,44.60
2019-04-16T16:41:49.489Z,45.30
2019-04-16T16:44:19.658Z,46.00
2019-04-16T16:47:15.327Z,46.50
2019-04-16T16:49:45.337Z,46.60
2019-04-16T16:52:52.448Z,46.50
2019-04-16T16:55:28.536Z,47.10
2019-04-16T16:58:03.629Z,47.60
2019-04-16T17:01:03.439Z,47.90
2019-04-16T17:03:55.756Z,48.50
2019-04-16T17:06:25.972Z,48.90
2019-04-16T17:08:56.198Z,49.50
2019-04-16T17:11:26.280Z,49.70
2019-04-16T17:13:57.987Z,50.10
2019-04-16T17:16:28.192Z,50.60
2019-04-16T17:18:58.283Z,50.90
2019-04-16T17:21:28.266Z,51.50
2019-04-16T17:23:58.380Z,51.80
2019-04-16T17:26:28.359Z,52.00
2019-04-16T17:28:58.443Z,52.20
2019-04-16T17:31:28.516Z,52.50
2019-04-16T17:33:58.639Z,52.60
2019-04-16T17:36:29.163Z,52.90
2019-04-16T17:38:59.259Z,52.90
2019-04-16T17:41:36.736Z,53.30
2019-04-16T17:44:28.906Z,53.50
2019-04-16T17:47:04.917Z,53.60
2019-04-16T17:50:04.000Z,53.70
2019-04-16T17:52:41.264Z,54.00
2019-04-16T17:55:30.706Z,54.20
2019-04-16T17:58:10.523Z,54.70
2019-04-16T18:01:17.664Z,54.80
2019-04-16T18:04:00.212Z,54.80
2019-04-16T18:06:39.076Z,55.20
2019-04-16T18:09:28.013Z,55.50
2019-04-16T18:12:25.084Z,55.60
2019-04-16T18:15:00.146Z,55.80
2019-04-16T18:17:47.154Z,56.50
2019-04-16T18:20:56.815Z,56.00
2019-04-16T18:23:28.868Z,56.00
2019-04-16T18:26:16.636Z,56.10
2019-04-16T18:29:02.729Z,56.10
2019-04-16T18:32:05.084Z,56.20
2019-04-16T18:34:44.420Z,56.40
2019-04-16T18:37:48.586Z,56.30
2019-04-16T18:40:32.751Z,56.40
2019-04-16T18:43:21.775Z,56.50
2019-04-16T18:46:09.719Z,56.50
2019-04-16T18:48:44.653Z,56.50
2019-04-16T18:51:13.039Z,56.70
2019-04-16T18:53:44.049Z,56.60
2019-04-16T18:56:14.237Z,56.60
2019-04-16T18:58:45.404Z,56.70
2019-04-16T19:01:19.455Z,56.70
2019-04-16T19:03:49.531Z,57.00
2019-04-16T19:06:19.596Z,57.30
2019-04-16T19:08:49.832Z,57.50
2019-04-16T19:11:20.543Z,58.00
2019-04-16T19:13:51.153Z,58.40
2019-04-16T19:16:22.075Z,58.70
2019-04-16T19:18:52.427Z,59.60
2019-04-16T19:21:24.455Z,59.10
2019-04-16T19:23:54.484Z,59.40
2019-04-16T19:26:25.168Z,59.70
2019-04-16T19:28:55.465Z,60.00
2019-04-16T19:31:25.895Z,60.60
2019-04-16T19:33:56.615Z,61.70
2019-04-16T19:36:27.566Z,63.20
2019-04-16T19:38:57.865Z,63.60
2019-04-16T19:41:28.100Z,64.10
2019-04-16T19:43:58.298Z,64.20
2019-04-16T19:46:29.622Z,64.50
2019-04-16T19:49:01.314Z,64.50
2019-04-16T19:51:32.784Z,65.00
2019-04-16T19:54:03.049Z,65.70
2019-04-16T19:56:33.681Z,65.40
2019-04-16T19:59:04.642Z,65.50
2019-04-16T20:01:35.395Z,65.80
2019-04-16T20:04:09.756Z,66.10
2019-04-16T20:06:37.890Z,66.20
2019-04-16T20:09:08.000Z,66.70
2019-04-16T20:11:39.828Z,67.90
2019-04-16T20:14:09.892Z,67.40
2019-04-16T20:16:39.902Z,67.30
2019-04-16T20:19:10.191Z,67.90
2019-04-16T20:21:41.269Z,68.20
2019-04-16T20:24:11.260Z,68.60
2019-04-16T20:26:41.407Z,68.80
2019-04-16T20:29:11.469Z,69.00
2019-04-16T20:31:41.799Z,69.10
2019-04-16T20:34:12.588Z,69.60
2019-04-16T20:36:43.415Z,69.60
2019-04-16T20:39:13.756Z,70.00
2019-04-16T20:41:44.026Z,70.00
2019-04-16T20:44:14.055Z,70.10
2019-04-16T20:46:44.087Z,70.20
2019-04-16T20:49:16.857Z,70.20
2019-04-16T20:51:46.541Z,70.00
2019-04-16T20:54:16.612Z,70.00
2019-04-16T20:56:50.089Z,69.80
2019-04-16T20:59:18.875Z,70.10
2019-04-16T21:01:48.879Z,70.40
2019-04-16T21:04:18.859Z,70.10
2019-04-16T21:06:48.876Z,70.00
2019-04-16T21:09:18.863Z,70.40
2019-04-16T21:11:52.512Z,71.50
2019-04-16T21:14:21.922Z,71.60
2019-04-16T21:16:52.399Z,71.80
2019-04-16T21:19:24.822Z,72.40
2019-04-16T21:21:56.406Z,73.00
2019-04-16T21:24:27.394Z,73.40
2019-04-16T21:26:58.059Z,73.40
2019-04-16T21:29:34.442Z,73.70
2019-04-16T21:32:10.267Z,73.40
2019-04-16T21:34:43.256Z,73.60
2019-04-16T21:37:31.620Z,73.70
2019-04-16T21:40:03.209Z,74.10
2019-04-16T21:42:34.880Z,74.50
2019-04-16T21:45:06.469Z,74.60
2019-04-16T21:47:36.489Z,75.50
2019-04-16T21:50:06.927Z,75.20
2019-04-16T21:52:36.928Z,76.50
2019-04-16T21:55:07.093Z,76.20
2019-04-16T21:57:37.249Z,76.90
2019-04-16T22:00:09.642Z,77.60
2019-04-16T22:02:41.658Z,78.50
2019-04-16T22:05:16.902Z,79.50
2019-04-16T22:07:43.455Z,80.50
2019-04-16T22:10:13.503Z,81.70
2019-04-16T22:12:44.737Z,81.80
2019-04-16T22:15:15.223Z,82.10
2019-04-16T22:17:45.283Z,83.60
2019-04-16T22:20:15.302Z,82.80
2019-04-16T22:22:46.666Z,84.50
2019-04-16T22:25:17.009Z,86.10
2019-04-16T22:27:47.087Z,87.60
2019-04-16T22:30:19.384Z,88.30
2019-04-16T22:32:48.796Z,89.00
2019-04-16T22:35:18.806Z,87.60
2019-04-16T22:37:48.799Z,87.20
2019-04-16T22:40:31.778Z,88.60
2019-04-16T22:43:20.736Z,89.20
2019-04-16T22:45:58.659Z,89.20
2019-04-16T22:48:28.659Z,89.30
2019-04-16T22:50:58.687Z,90.10
2019-04-16T22:53:28.688Z,89.30
2019-04-16T22:55:59.587Z,88.20
2019-04-16T22:58:47.251Z,88.30
2019-04-16T23:01:18.111Z,88.90
2019-04-16T23:03:49.790Z,89.10
2019-04-16T23:06:19.802Z,89.10
2019-04-16T23:08:49.807Z,89.40
2019-04-16T23:11:23.684Z,87.80
2019-04-16T23:13:52.583Z,89.10
2019-04-16T23:16:22.635Z,89.40
2019-04-16T23:18:52.639Z,88.80
2019-04-16T23:21:22.647Z,89.00
2019-04-16T23:23:52.647Z,89.30
2019-04-16T23:26:22.671Z,90.20
2019-04-16T23:28:52.740Z,89.60
2019-04-16T23:31:23.746Z,90.60
2019-04-16T23:33:53.839Z,90.30
2019-04-16T23:36:23.895Z,90.70
2019-04-16T23:38:53.941Z,90.50
2019-04-16T23:41:24.026Z,90.20
2019-04-16T23:44:11.655Z,90.70
2019-04-16T23:46:59.558Z,90.60
2019-04-16T23:49:36.422Z,90.80
2019-04-16T23:52:15.282Z,91.00
2019-04-16T23:54:54.084Z,90.70
2019-04-16T23:57:35.901Z,90.20
